Time;durP1;ratioP1;P1;durP2;ratioP2;P2;SDS_P1;SDS_P2;PMS_P1;PMS_P2;Temp;Humidity;BMP_temperature;BMP_pressure;BME280_temperature;BME280_humidity;BME280_pressure;Samples;Min_cycle;Max_cycle;Signal;HPM_P1;HPM_P2
2023/12/02 00:02:02;;;;;;;0.20;0.20;;;;;;;;;;6288531;28;20026;-82
2023/12/02 00:05:03;;;;;;;0.20;0.20;;;;;;;;;;6270651;28;20079;-82
2023/12/02 00:08:03;;;;;;;0.30;0.30;;;;;;;;;;6292252;28;20012;-81
2023/12/02 00:11:03;;;;;;;0.30;0.30;;;;;;;;;;6291574;28;20060;-82
2023/12/02 00:14:04;;;;;;;0.20;0.20;;;;;;;;;;6273768;28;20032;-82
2023/12/02 00:17:04;;;;;;;0.20;0.20;;;;;;;;;;6293153;28;20042;-81
2023/12/02 00:20:04;;;;;;;0.20;0.20;;;;;;;;;;6292070;28;20062;-82
2023/12/02 00:23:05;;;;;;;0.20;0.20;;;;;;;;;;6292104;28;20025;-81
2023/12/02 00:26:05;;;;;;;0.30;0.30;;;;;;;;;;6288424;28;20497;-81
2023/12/02 00:29:05;;;;;;;0.27;0.27;;;;;;;;;;6291145;28;20008;-81
2023/12/02 00:32:06;;;;;;;0.20;0.20;;;;;;;;;;6273346;28;20066;-81
2023/12/02 00:35:06;;;;;;;0.30;0.30;;;;;;;;;;6274343;28;20471;-82
2023/12/02 00:38:06;;;;;;;0.30;0.30;;;;;;;;;;6292252;28;20024;-81
2023/12/02 00:41:10;;;;;;;0.30;0.30;;;;;;;;;;6306284;28;20025;-82
2023/12/02 00:44:10;;;;;;;0.30;0.30;;;;;;;;;;6306471;28;20040;-77
2023/12/02 00:47:11;;;;;;;0.20;0.20;;;;;;;;;;6257003;28;20475;-77
2023/12/02 00:50:11;;;;;;;0.20;0.20;;;;;;;;;;6292036;28;20470;-77
2023/12/02 00:53:11;;;;;;;0.30;0.30;;;;;;;;;;6292546;28;20037;-77
2023/12/02 00:56:11;;;;;;;0.27;0.27;;;;;;;;;;6291296;28;20020;-78
2023/12/02 00:59:12;;;;;;;0.20;0.20;;;;;;;;;;6291960;28;20020;-78
2023/12/02 01:02:12;;;;;;;0.20;0.20;;;;;;;;;;6295237;28;20033;-78
2023/12/02 01:05:12;;;;;;;0.27;0.27;;;;;;;;;;6274766;28;20043;-78
2023/12/02 01:08:12;;;;;;;0.20;0.20;;;;;;;;;;6296663;28;20016;-78
2023/12/02 01:11:13;;;;;;;0.20;0.20;;;;;;;;;;6296675;28;20029;-78
2023/12/02 01:14:13;;;;;;;0.20;0.20;;;;;;;;;;6296500;28;20099;-77
2023/12/02 01:17:13;;;;;;;0.30;0.30;;;;;;;;;;6297021;28;20395;-77
2023/12/02 01:20:13;;;;;;;0.20;0.20;;;;;;;;;;6296883;28;20012;-77
2023/12/02 01:23:14;;;;;;;0.30;0.30;;;;;;;;;;6297015;28;20031;-78
2023/12/02 01:26:14;;;;;;;0.20;0.20;;;;;;;;;;6289131;28;20135;-78
2023/12/02 01:29:14;;;;;;;0.20;0.20;;;;;;;;;;6300017;28;20051;-78
2023/12/02 01:32:14;;;;;;;0.30;0.30;;;;;;;;;;6304952;28;20025;-78
2023/12/02 01:35:15;;;;;;;0.20;0.20;;;;;;;;;;6296082;28;20029;-78
2023/12/02 01:38:15;;;;;;;0.20;0.20;;;;;;;;;;6278184;28;20474;-77
2023/12/02 01:41:15;;;;;;;0.30;0.30;;;;;;;;;;6320528;28;20020;-78
2023/12/02 01:44:16;;;;;;;0.20;0.20;;;;;;;;;;6313797;28;20479;-77
2023/12/02 01:47:16;;;;;;;0.20;0.20;;;;;;;;;;6296217;28;20099;-77
2023/12/02 01:50:17;;;;;;;0.30;0.30;;;;;;;;;;6295983;28;20100;-78
2023/12/02 01:53:18;;;;;;;0.20;0.20;;;;;;;;;;6295106;28;20016;-78
2023/12/02 01:56:18;;;;;;;0.20;0.20;;;;;;;;;;6296032;28;20411;-78
2023/12/02 01:59:19;;;;;;;0.23;0.23;;;;;;;;;;6295873;28;20021;-77
2023/12/02 02:02:19;;;;;;;0.20;0.20;;;;;;;;;;6294808;28;20039;-79
2023/12/02 02:05:20;;;;;;;0.30;0.30;;;;;;;;;;6290293;28;20025;-80
2023/12/02 02:08:20;;;;;;;0.20;0.20;;;;;;;;;;6304232;28;20395;-80
2023/12/02 02:11:20;;;;;;;0.20;0.20;;;;;;;;;;6296350;28;20509;-78
2023/12/02 02:14:21;;;;;;;0.20;0.20;;;;;;;;;;6286645;28;20483;-80
2023/12/02 02:17:21;;;;;;;0.20;0.20;;;;;;;;;;6308409;28;20518;-80
2023/12/02 02:20:21;;;;;;;0.30;0.30;;;;;;;;;;6295170;28;20479;-80
2023/12/02 02:23:22;;;;;;;0.30;0.30;;;;;;;;;;6295637;28;20509;-80
2023/12/02 02:26:22;;;;;;;0.20;0.20;;;;;;;;;;6294959;28;20111;-80
2023/12/02 02:29:23;;;;;;;0.20;0.20;;;;;;;;;;6292439;28;20029;-80
2023/12/02 02:32:23;;;;;;;0.27;0.27;;;;;;;;;;6288461;28;20070;-80
2023/12/02 02:35:24;;;;;;;0.30;0.30;;;;;;;;;;6294943;28;20394;-80
2023/12/02 02:38:24;;;;;;;0.20;0.20;;;;;;;;;;6286077;28;20433;-80
2023/12/02 02:41:25;;;;;;;0.20;0.20;;;;;;;;;;6298468;28;20034;-80
2023/12/02 02:44:26;;;;;;;0.30;0.30;;;;;;;;;;6275998;28;20054;-80
2023/12/02 02:47:27;;;;;;;0.20;0.20;;;;;;;;;;6295192;28;20024;-80
2023/12/02 02:50:27;;;;;;;0.20;0.20;;;;;;;;;;6281024;28;20027;-79
2023/12/02 02:53:28;;;;;;;0.20;0.20;;;;;;;;;;6289754;28;20074;-79
2023/12/02 02:56:28;;;;;;;0.20;0.20;;;;;;;;;;6294407;28;20108;-80
2023/12/02 02:59:28;;;;;;;0.20;0.20;;;;;;;;;;6292640;28;20074;-80
2023/12/02 03:02:29;;;;;;;0.20;0.20;;;;;;;;;;6295685;28;20079;-80
2023/12/02 03:05:29;;;;;;;0.20;0.20;;;;;;;;;;6288201;28;20404;-80
2023/12/02 03:08:29;;;;;;;0.20;0.20;;;;;;;;;;6293799;28;20029;-80
2023/12/02 03:11:29;;;;;;;0.30;0.30;;;;;;;;;;6294336;28;20033;-80
2023/12/02 03:14:29;;;;;;;0.20;0.20;;;;;;;;;;6275706;28;20035;-80
2023/12/02 03:17:30;;;;;;;0.20;0.20;;;;;;;;;;6293802;28;20020;-80
2023/12/02 03:20:30;;;;;;;0.20;0.20;;;;;;;;;;6293473;28;20471;-80
2023/12/02 03:23:30;;;;;;;0.20;0.20;;;;;;;;;;6293618;28;20441;-80
2023/12/02 03:26:31;;;;;;;0.27;0.27;;;;;;;;;;6293509;28;20056;-80
2023/12/02 03:29:31;;;;;;;0.20;0.20;;;;;;;;;;6293602;28;20264;-80
2023/12/02 03:32:31;;;;;;;0.20;0.20;;;;;;;;;;6307469;28;20016;-80
2023/12/02 03:35:31;;;;;;;0.20;0.20;;;;;;;;;;6292882;28;20025;-80
2023/12/02 03:38:32;;;;;;;0.30;0.30;;;;;;;;;;6293311;28;20096;-80
2023/12/02 03:41:32;;;;;;;0.30;0.30;;;;;;;;;;6293181;28;20028;-78
2023/12/02 03:44:32;;;;;;;0.20;0.20;;;;;;;;;;6292756;28;20107;-77
2023/12/02 03:47:33;;;;;;;0.20;0.20;;;;;;;;;;6274199;28;20521;-78
2023/12/02 03:50:33;;;;;;;0.20;0.20;;;;;;;;;;6293852;28;20489;-78
2023/12/02 03:53:35;;;;;;;0.30;0.30;;;;;;;;;;6292023;28;20016;-78
2023/12/02 03:56:37;;;;;;;0.30;0.30;;;;;;;;;;6302148;28;20020;-78
2023/12/02 03:59:38;;;;;;;0.30;0.30;;;;;;;;;;6308058;28;20051;-78
2023/12/02 04:02:39;;;;;;;0.30;0.30;;;;;;;;;;6292006;28;20040;-78
2023/12/02 04:05:39;;;;;;;0.20;0.20;;;;;;;;;;6290070;28;20095;-78
2023/12/02 04:08:40;;;;;;;0.30;0.30;;;;;;;;;;6292684;28;20028;-78
2023/12/02 04:11:40;;;;;;;0.30;0.30;;;;;;;;;;6292299;28;20024;-77
2023/12/02 04:14:40;;;;;;;0.30;0.30;;;;;;;;;;6292149;28;20017;-77
2023/12/02 04:17:40;;;;;;;0.20;0.20;;;;;;;;;;6291849;28;20108;-78
2023/12/02 04:20:41;;;;;;;0.30;0.30;;;;;;;;;;6292914;28;20079;-78
2023/12/02 04:23:41;;;;;;;0.20;0.20;;;;;;;;;;6292363;28;20031;-78
2023/12/02 04:26:41;;;;;;;0.20;0.20;;;;;;;;;;6292488;28;20017;-78
2023/12/02 04:29:42;;;;;;;0.30;0.30;;;;;;;;;;6291957;28;20075;-77
2023/12/02 04:32:42;;;;;;;0.20;0.20;;;;;;;;;;6292381;28;20021;-78
2023/12/02 04:35:43;;;;;;;0.30;0.30;;;;;;;;;;6290873;28;20092;-78
2023/12/02 04:38:43;;;;;;;0.20;0.20;;;;;;;;;;6292200;28;20021;-77
2023/12/02 04:41:43;;;;;;;0.20;0.20;;;;;;;;;;6292392;28;20070;-78
2023/12/02 04:44:43;;;;;;;0.20;0.20;;;;;;;;;;6292054;28;20459;-78
2023/12/02 04:47:44;;;;;;;0.20;0.20;;;;;;;;;;6292331;28;20024;-78
2023/12/02 04:50:44;;;;;;;0.20;0.20;;;;;;;;;;6287750;28;20051;-78
2023/12/02 04:53:44;;;;;;;0.30;0.30;;;;;;;;;;6291740;28;20017;-77
2023/12/02 04:56:45;;;;;;;0.20;0.20;;;;;;;;;;6292017;28;20498;-78
2023/12/02 04:59:45;;;;;;;0.20;0.20;;;;;;;;;;6267366;28;20029;-76
2023/12/02 05:02:45;;;;;;;0.23;0.23;;;;;;;;;;6275571;28;20075;-76
2023/12/02 05:05:46;;;;;;;0.30;0.30;;;;;;;;;;6291860;28;20024;-76
2023/12/02 05:08:46;;;;;;;0.23;0.23;;;;;;;;;;6287783;28;20032;-76
2023/12/02 05:11:46;;;;;;;0.20;0.20;;;;;;;;;;6291505;28;20032;-76
2023/12/02 05:14:46;;;;;;;0.20;0.20;;;;;;;;;;6291333;28;20059;-76
2023/12/02 05:17:47;;;;;;;0.30;0.30;;;;;;;;;;6303669;28;20106;-76
2023/12/02 05:20:47;;;;;;;0.30;0.30;;;;;;;;;;6293949;28;20020;-76
2023/12/02 05:23:47;;;;;;;0.30;0.30;;;;;;;;;;6291350;28;20110;-76
2023/12/02 05:26:48;;;;;;;0.30;0.30;;;;;;;;;;6273179;28;20108;-76
2023/12/02 05:29:48;;;;;;;0.20;0.20;;;;;;;;;;6266748;28;20009;-76
2023/12/02 05:32:51;;;;;;;0.30;0.30;;;;;;;;;;6289522;28;20107;-78
2023/12/02 05:35:51;;;;;;;0.22;0.22;;;;;;;;;;6297028;28;20019;-78
2023/12/02 05:38:51;;;;;;;0.20;0.20;;;;;;;;;;6275746;28;20029;-78
2023/12/02 05:41:52;;;;;;;0.30;0.30;;;;;;;;;;6278821;28;20024;-78
2023/12/02 05:44:52;;;;;;;0.30;0.30;;;;;;;;;;6284119;28;20475;-78
2023/12/02 05:47:52;;;;;;;0.20;0.20;;;;;;;;;;6282705;28;20032;-76
2023/12/02 05:50:52;;;;;;;0.20;0.20;;;;;;;;;;6275109;28;20024;-76
2023/12/02 05:53:53;;;;;;;0.20;0.20;;;;;;;;;;6296285;28;20017;-75
2023/12/02 05:56:54;;;;;;;0.30;0.30;;;;;;;;;;6301666;28;20517;-78
2023/12/02 05:59:55;;;;;;;0.20;0.20;;;;;;;;;;6291345;28;20063;-78
2023/12/02 06:02:55;;;;;;;0.20;0.20;;;;;;;;;;6297515;28;20110;-78
2023/12/02 06:05:55;;;;;;;0.30;0.30;;;;;;;;;;6294860;28;20403;-77
2023/12/02 06:08:56;;;;;;;0.20;0.20;;;;;;;;;;6278166;28;20048;-77
2023/12/02 06:11:56;;;;;;;0.20;0.20;;;;;;;;;;6301564;28;20031;-80
2023/12/02 06:14:56;;;;;;;0.20;0.20;;;;;;;;;;6284968;28;20020;-80
2023/12/02 06:17:57;;;;;;;0.20;0.20;;;;;;;;;;6295634;28;20537;-80
2023/12/02 06:20:57;;;;;;;0.20;0.20;;;;;;;;;;6275637;28;20548;-80
2023/12/02 06:23:57;;;;;;;0.30;0.30;;;;;;;;;;6300582;28;20083;-78
2023/12/02 06:26:57;;;;;;;0.30;0.30;;;;;;;;;;6303055;28;20039;-80
2023/12/02 06:29:58;;;;;;;0.30;0.30;;;;;;;;;;6296791;28;20032;-80
2023/12/02 06:32:58;;;;;;;0.20;0.20;;;;;;;;;;6280336;28;20543;-81
2023/12/02 06:35:59;;;;;;;0.30;0.30;;;;;;;;;;6279859;28;20503;-80
2023/12/02 06:38:59;;;;;;;0.20;0.20;;;;;;;;;;6290407;28;20528;-81
2023/12/02 06:41:59;;;;;;;0.30;0.30;;;;;;;;;;6276583;28;20078;-81
2023/12/02 06:44:59;;;;;;;0.23;0.23;;;;;;;;;;6288708;28;20035;-80
2023/12/02 06:48:01;;;;;;;0.27;0.27;;;;;;;;;;6292010;28;20570;-79
2023/12/02 06:51:01;;;;;;;0.30;0.30;;;;;;;;;;6271125;28;20029;-79
2023/12/02 06:54:01;;;;;;;0.30;0.30;;;;;;;;;;6284363;28;20035;-79
2023/12/02 06:57:02;;;;;;;0.20;0.20;;;;;;;;;;6263603;28;20025;-79
2023/12/02 07:00:05;;;;;;;0.20;0.20;;;;;;;;;;6291490;28;20561;-79
2023/12/02 07:03:08;;;;;;;0.28;0.28;;;;;;;;;;6286737;28;20491;-79
2023/12/02 07:06:09;;;;;;;0.20;0.20;;;;;;;;;;6291934;28;20023;-79
2023/12/02 07:09:11;;;;;;;0.20;0.20;;;;;;;;;;6261562;28;20028;-79
2023/12/02 07:12:11;;;;;;;0.30;0.30;;;;;;;;;;6267852;28;20025;-79
2023/12/02 07:15:12;;;;;;;0.30;0.30;;;;;;;;;;6291044;28;20020;-79
2023/12/02 07:18:12;;;;;;;0.30;0.30;;;;;;;;;;6287280;28;20033;-79
2023/12/02 07:21:12;;;;;;;0.30;0.30;;;;;;;;;;6291432;28;20059;-79
2023/12/02 07:24:13;;;;;;;0.30;0.30;;;;;;;;;;6306080;28;20024;-79
2023/12/02 07:27:14;;;;;;;0.30;0.30;;;;;;;;;;6304041;28;20034;-79
2023/12/02 07:30:14;;;;;;;0.20;0.20;;;;;;;;;;6291991;28;20063;-79
2023/12/02 07:33:14;;;;;;;0.30;0.30;;;;;;;;;;6272416;28;20029;-78
2023/12/02 07:36:15;;;;;;;0.30;0.30;;;;;;;;;;6293870;28;20017;-79
2023/12/02 07:39:15;;;;;;;0.30;0.30;;;;;;;;;;6282302;28;20025;-79
2023/12/02 07:42:15;;;;;;;0.30;0.30;;;;;;;;;;6297893;28;20028;-77
2023/12/02 07:45:16;;;;;;;0.30;0.30;;;;;;;;;;6291894;28;20024;-78
2023/12/02 07:48:16;;;;;;;0.30;0.30;;;;;;;;;;6281289;28;20111;-77
2023/12/02 07:51:16;;;;;;;0.20;0.20;;;;;;;;;;6300380;28;20035;-77
2023/12/02 07:54:16;;;;;;;0.20;0.20;;;;;;;;;;6272938;28;20115;-78
2023/12/02 07:57:17;;;;;;;0.30;0.30;;;;;;;;;;6291930;28;20470;-77
2023/12/02 08:00:17;;;;;;;0.20;0.20;;;;;;;;;;6292509;28;20016;-78
2023/12/02 08:03:17;;;;;;;0.20;0.20;;;;;;;;;;6274813;28;20051;-78
2023/12/02 08:06:18;;;;;;;0.30;0.30;;;;;;;;;;6290417;28;20029;-78
2023/12/02 08:09:18;;;;;;;0.30;0.30;;;;;;;;;;6298687;28;20402;-78
2023/12/02 08:12:18;;;;;;;0.20;0.20;;;;;;;;;;6288530;28;20428;-78
2023/12/02 08:15:18;;;;;;;0.20;0.20;;;;;;;;;;6294433;28;20455;-78
2023/12/02 08:18:21;;;;;;;0.30;0.30;;;;;;;;;;6272698;28;20438;-78
2023/12/02 08:21:21;;;;;;;0.30;0.30;;;;;;;;;;6290552;28;20037;-78
2023/12/02 08:24:21;;;;;;;0.30;0.30;;;;;;;;;;6294873;28;20024;-78
2023/12/02 08:27:21;;;;;;;0.30;0.30;;;;;;;;;;6292387;28;20028;-78
2023/12/02 08:30:22;;;;;;;0.30;0.30;;;;;;;;;;6296252;28;20066;-78
2023/12/02 08:33:22;;;;;;;0.30;0.30;;;;;;;;;;6295509;28;20453;-78
2023/12/02 08:36:22;;;;;;;0.20;0.20;;;;;;;;;;6290517;28;20071;-77
2023/12/02 08:39:22;;;;;;;0.30;0.30;;;;;;;;;;6287603;28;20498;-78
2023/12/02 08:42:23;;;;;;;0.30;0.30;;;;;;;;;;6288444;28;20043;-78
2023/12/02 08:45:23;;;;;;;0.30;0.30;;;;;;;;;;6290141;28;20116;-78
2023/12/02 08:48:24;;;;;;;0.20;0.20;;;;;;;;;;6287962;28;20512;-78
2023/12/02 08:51:24;;;;;;;0.25;0.25;;;;;;;;;;6279105;28;20028;-78
2023/12/02 08:54:25;;;;;;;0.20;0.20;;;;;;;;;;6290408;28;20103;-77
2023/12/02 08:57:25;;;;;;;0.27;0.27;;;;;;;;;;6291516;28;20051;-77
2023/12/02 09:00:25;;;;;;;0.20;0.20;;;;;;;;;;6273380;28;20056;-77
2023/12/02 09:03:25;;;;;;;0.20;0.20;;;;;;;;;;6263073;28;20122;-77
2023/12/02 09:06:26;;;;;;;0.20;0.20;;;;;;;;;;6291774;28;20455;-77
2023/12/02 09:09:26;;;;;;;0.20;0.20;;;;;;;;;;6281170;28;20457;-77
2023/12/02 09:12:26;;;;;;;0.20;0.20;;;;;;;;;;6299740;28;20044;-79
2023/12/02 09:15:36;;;;;;;0.20;0.20;;;;;;;;;;6305586;28;20098;-78
2023/12/02 09:18:37;;;;;;;0.20;0.20;;;;;;;;;;6294308;28;20366;-78
2023/12/02 09:21:44;;;;;;;0.20;0.20;;;;;;;;;;6274020;28;20032;-78
2023/12/02 09:24:44;;;;;;;0.20;0.20;;;;;;;;;;6297214;28;20461;-79
2023/12/02 09:27:47;;;;;;;0.20;0.20;;;;;;;;;;6301042;28;20024;-79
2023/12/02 09:30:58;;;;;;;0.20;0.20;;;;;;;;;;6299670;28;20038;-79
2023/12/02 09:34:03;;;;;;;0.30;0.30;;;;;;;;;;6295855;28;20028;-79
2023/12/02 09:37:03;;;;;;;0.20;0.20;;;;;;;;;;6306098;28;20102;-79
2023/12/02 09:40:19;;;;;;;0.20;0.20;;;;;;;;;;6290349;28;20380;-79
2023/12/02 09:43:22;;;;;;;0.20;0.20;;;;;;;;;;6294250;28;20021;-79
2023/12/02 09:46:23;;;;;;;0.20;0.20;;;;;;;;;;6276031;28;20029;-79
2023/12/02 09:49:42;;;;;;;0.20;0.20;;;;;;;;;;6294123;28;20058;-79
2023/12/02 09:52:54;;;;;;;0.30;0.30;;;;;;;;;;6293130;28;20028;-79
2023/12/02 09:55:58;;;;;;;0.30;0.30;;;;;;;;;;6290276;28;20029;-78
2023/12/02 09:59:08;;;;;;;0.30;0.30;;;;;;;;;;6287625;28;20090;-79
2023/12/02 10:02:28;;;;;;;0.30;0.30;;;;;;;;;;6288136;28;20040;-78
2023/12/02 10:05:34;;;;;;;0.30;0.30;;;;;;;;;;6286199;28;20059;-79
2023/12/02 10:08:44;;;;;;;0.20;0.20;;;;;;;;;;6294611;28;20023;-79
2023/12/02 10:12:03;;;;;;;0.20;0.20;;;;;;;;;;6294574;28;20140;-79
2023/12/02 10:15:05;;;;;;;0.30;0.30;;;;;;;;;;6293534;28;20012;-78
2023/12/02 10:18:05;;;;;;;0.20;0.20;;;;;;;;;;6295916;28;20027;-78
2023/12/02 10:21:07;;;;;;;0.20;0.20;;;;;;;;;;6277082;28;20390;-78
2023/12/02 10:24:10;;;;;;;0.20;0.20;;;;;;;;;;6294632;28;20017;-78
2023/12/02 10:27:14;;;;;;;0.20;0.20;;;;;;;;;;6277153;28;20036;-78
2023/12/02 10:30:16;;;;;;;0.20;0.20;;;;;;;;;;6294588;28;20067;-79
2023/12/02 10:33:55;;;;;;;0.20;0.20;;;;;;;;;;6273681;28;20489;-79
2023/12/02 10:36:58;;;;;;;0.20;0.20;;;;;;;;;;6164684;28;20027;-78
2023/12/02 10:40:00;;;;;;;0.20;0.20;;;;;;;;;;6169311;28;20026;-79
2023/12/02 10:43:12;;;;;;;0.20;0.20;;;;;;;;;;6289224;28;20036;-78
2023/12/02 10:46:13;;;;;;;0.20;0.20;;;;;;;;;;6261342;28;20027;-79
2023/12/02 10:49:14;;;;;;;0.20;0.20;;;;;;;;;;6281963;28;20024;-79
2023/12/02 10:52:16;;;;;;;0.20;0.20;;;;;;;;;;6290085;28;20020;-79
2023/12/02 10:55:17;;;;;;;0.30;0.30;;;;;;;;;;6293222;28;20012;-79
2023/12/02 10:58:17;;;;;;;0.20;0.20;;;;;;;;;;6281350;28;20017;-79
2023/12/02 11:01:34;;;;;;;0.20;0.20;;;;;;;;;;6293516;28;20391;-79
2023/12/02 11:04:36;;;;;;;0.28;0.28;;;;;;;;;;6274718;28;20053;-79
2023/12/02 11:07:39;;;;;;;0.20;0.20;;;;;;;;;;6275292;28;20036;-79
2023/12/02 11:10:43;;;;;;;0.20;0.20;;;;;;;;;;6298729;28;20108;-80
2023/12/02 11:13:46;;;;;;;0.20;0.20;;;;;;;;;;6294691;28;20031;-80
2023/12/02 11:17:07;;;;;;;0.20;0.20;;;;;;;;;;6294161;28;20017;-79
2023/12/02 11:20:12;;;;;;;0.20;0.20;;;;;;;;;;6255329;28;20032;-79
2023/12/02 11:23:16;;;;;;;0.20;0.20;;;;;;;;;;6293969;28;20100;-80
2023/12/02 11:26:17;;;;;;;0.30;0.30;;;;;;;;;;6282926;28;20128;-80
2023/12/02 11:29:30;;;;;;;0.20;0.20;;;;;;;;;;6288669;28;20461;-80
2023/12/02 11:32:31;;;;;;;0.20;0.20;;;;;;;;;;6293627;28;20047;-76
2023/12/02 11:35:33;;;;;;;0.20;0.20;;;;;;;;;;6287445;28;20024;-76
2023/12/02 11:38:34;;;;;;;0.20;0.20;;;;;;;;;;6293291;28;20017;-76
2023/12/02 11:41:55;;;;;;;0.20;0.20;;;;;;;;;;6293811;28;20016;-76
2023/12/02 11:45:09;;;;;;;0.20;0.20;;;;;;;;;;6274498;28;20020;-76
2023/12/02 11:48:16;;;;;;;0.20;0.20;;;;;;;;;;6292714;28;20034;-76
2023/12/02 11:51:34;;;;;;;0.20;0.20;;;;;;;;;;6284928;28;20032;-81
2023/12/02 11:54:44;;;;;;;0.20;0.20;;;;;;;;;;6269681;28;20017;-76
2023/12/02 11:57:57;;;;;;;0.20;0.20;;;;;;;;;;6292711;28;20009;-76
2023/12/02 12:01:00;;;;;;;0.20;0.20;;;;;;;;;;6267920;28;20081;-76
2023/12/02 12:04:06;;;;;;;0.20;0.20;;;;;;;;;;6292684;28;20044;-76
2023/12/02 12:07:09;;;;;;;0.20;0.20;;;;;;;;;;6292643;28;20031;-76
2023/12/02 12:10:22;;;;;;;0.20;0.20;;;;;;;;;;6292095;28;20437;-76
2023/12/02 12:13:25;;;;;;;0.20;0.20;;;;;;;;;;6292161;28;21629;-76
2023/12/02 12:16:25;;;;;;;0.30;0.30;;;;;;;;;;6292538;28;20028;-76
2023/12/02 12:19:25;;;;;;;0.30;0.30;;;;;;;;;;6292262;28;20025;-76
2023/12/02 12:22:26;;;;;;;0.20;0.20;;;;;;;;;;6292113;28;20474;-77
2023/12/02 12:25:31;;;;;;;0.20;0.20;;;;;;;;;;6273907;28;20122;-75
2023/12/02 12:28:32;;;;;;;0.20;0.20;;;;;;;;;;6292083;28;20024;-76
2023/12/02 12:31:32;;;;;;;0.20;0.20;;;;;;;;;;6292330;28;20179;-76
2023/12/02 12:34:32;;;;;;;0.30;0.30;;;;;;;;;;6291865;28;20484;-76
2023/12/02 12:37:35;;;;;;;0.20;0.20;;;;;;;;;;6272029;28;20461;-77
2023/12/02 12:40:44;;;;;;;0.20;0.20;;;;;;;;;;6290685;28;20032;-77
2023/12/02 12:43:44;;;;;;;0.20;0.20;;;;;;;;;;6286495;28;20115;-77
2023/12/02 12:46:45;;;;;;;0.30;0.30;;;;;;;;;;6288317;28;20062;-76
2023/12/02 12:49:46;;;;;;;0.20;0.20;;;;;;;;;;6291322;28;20028;-77
2023/12/02 12:52:50;;;;;;;0.20;0.20;;;;;;;;;;6292815;28;20024;-76
2023/12/02 12:55:54;;;;;;;0.28;0.28;;;;;;;;;;6291042;28;20047;-77
2023/12/02 12:59:00;;;;;;;0.20;0.20;;;;;;;;;;6284244;28;20024;-77
2023/12/02 13:02:04;;;;;;;0.22;0.22;;;;;;;;;;6263955;28;20028;-77
2023/12/02 13:05:09;;;;;;;0.20;0.20;;;;;;;;;;6292413;28;20520;-77
2023/12/02 13:08:29;;;;;;;0.20;0.20;;;;;;;;;;6291945;28;20021;-77
2023/12/02 13:11:31;;;;;;;0.20;0.20;;;;;;;;;;6272873;28;20135;-77
2023/12/02 13:14:33;;;;;;;;;;;;;;;;;;6292139;28;20044;-77
2023/12/02 13:17:35;;;;;;;0.20;0.20;;;;;;;;;;6290948;28;20002;-76
2023/12/02 13:20:37;;;;;;;0.30;0.30;;;;;;;;;;6273175;28;20013;-76
2023/12/02 13:23:37;;;;;;;0.30;0.30;;;;;;;;;;6289976;28;20295;-76
2023/12/02 13:26:38;;;;;;;0.20;0.20;;;;;;;;;;6295119;28;20434;-76
2023/12/02 13:29:38;;;;;;;0.20;0.20;;;;;;;;;;6290996;28;20028;-76
2023/12/02 13:32:41;;;;;;;0.23;0.23;;;;;;;;;;6278796;28;20122;-76
2023/12/02 13:35:43;;;;;;;0.30;0.30;;;;;;;;;;6297411;28;20012;-76
2023/12/02 13:38:54;;;;;;;0.30;0.30;;;;;;;;;;6288898;28;20030;-76
2023/12/02 13:41:55;;;;;;;0.30;0.30;;;;;;;;;;6297639;28;20051;-76
2023/12/02 13:45:06;;;;;;;0.20;0.20;;;;;;;;;;6290761;28;20394;-76
2023/12/02 13:48:21;;;;;;;0.20;0.20;;;;;;;;;;6289333;28;20035;-76
2023/12/02 13:51:29;;;;;;;0.20;0.20;;;;;;;;;;6296030;28;20032;-76
2023/12/02 13:54:43;;;;;;;0.20;0.20;;;;;;;;;;6270821;28;20055;-76
2023/12/02 13:57:51;;;;;;;0.20;0.20;;;;;;;;;;6265920;28;20032;-76
2023/12/02 14:01:13;;;;;;;0.30;0.30;;;;;;;;;;6291887;28;20439;-76
2023/12/02 14:04:16;;;;;;;0.20;0.20;;;;;;;;;;6275270;28;20494;-76
2023/12/02 14:07:22;;;;;;;0.20;0.20;;;;;;;;;;6291213;28;20028;-76
2023/12/02 14:10:22;;;;;;;0.20;0.20;;;;;;;;;;6293783;28;20207;-76
2023/12/02 14:13:40;;;;;;;0.30;0.30;;;;;;;;;;6291905;28;20475;-77
2023/12/02 14:16:48;;;;;;;0.30;0.30;;;;;;;;;;6291394;28;20060;-76
2023/12/02 14:20:06;;;;;;;0.30;0.30;;;;;;;;;;6288597;28;20477;-76
2023/12/02 14:23:25;;;;;;;0.30;0.30;;;;;;;;;;6287029;28;20701;-76
2023/12/02 14:26:25;;;;;;;0.30;0.30;;;;;;;;;;6271329;28;20031;-76
2023/12/02 14:29:38;;;;;;;0.20;0.20;;;;;;;;;;6293621;28;20029;-76
2023/12/02 14:33:14;;;;;;;0.30;0.30;;;;;;;;;;6296684;28;20020;-76
2023/12/02 14:36:14;;;;;;;0.30;0.30;;;;;;;;;;6171468;28;20019;-77
2023/12/02 14:39:27;;;;;;;0.30;0.30;;;;;;;;;;6288743;28;20514;-77
2023/12/02 14:42:42;;;;;;;0.30;0.30;;;;;;;;;;6294441;28;20044;-77
2023/12/02 14:45:42;;;;;;;0.20;0.20;;;;;;;;;;6283583;28;20024;-77
2023/12/02 14:48:43;;;;;;;0.30;0.30;;;;;;;;;;6274771;28;20035;-76
2023/12/02 14:51:43;;;;;;;0.27;0.27;;;;;;;;;;6281372;28;20028;-76
2023/12/02 14:54:44;;;;;;;0.30;0.30;;;;;;;;;;6294600;28;20020;-76
2023/12/02 14:57:44;;;;;;;0.30;0.30;;;;;;;;;;6272697;28;20024;-76
2023/12/02 15:00:49;;;;;;;0.20;0.20;;;;;;;;;;6313406;28;20457;-76
2023/12/02 15:03:53;;;;;;;0.20;0.20;;;;;;;;;;6295951;28;20495;-77
2023/12/02 15:06:54;;;;;;;0.30;0.30;;;;;;;;;;6290029;28;20031;-77
2023/12/02 15:09:55;;;;;;;0.30;0.30;;;;;;;;;;6293349;28;20450;-77
2023/12/02 15:12:55;;;;;;;0.20;0.20;;;;;;;;;;6281608;28;20032;-77
2023/12/02 15:15:56;;;;;;;0.30;0.30;;;;;;;;;;6293607;28;20016;-77
2023/12/02 15:18:57;;;;;;;0.30;0.30;;;;;;;;;;6291828;28;20020;-77
2023/12/02 15:22:06;;;;;;;0.30;0.30;;;;;;;;;;6274241;28;20021;-77
2023/12/02 15:25:07;;;;;;;0.30;0.30;;;;;;;;;;6296413;28;20514;-77
2023/12/02 15:28:22;;;;;;;0.30;0.30;;;;;;;;;;6273422;28;20029;-77
2023/12/02 15:31:23;;;;;;;0.20;0.20;;;;;;;;;;6290093;28;20490;-77
2023/12/02 15:34:24;;;;;;;0.20;0.20;;;;;;;;;;6292185;28;20020;-79
2023/12/02 15:37:25;;;;;;;0.20;0.20;;;;;;;;;;6291761;28;20495;-79
2023/12/02 15:40:25;;;;;;;0.30;0.30;;;;;;;;;;6299280;28;20058;-80
2023/12/02 15:43:26;;;;;;;0.20;0.20;;;;;;;;;;6273206;28;20028;-79
2023/12/02 15:46:27;;;;;;;0.20;0.20;;;;;;;;;;6273075;28;20372;-78
2023/12/02 15:49:27;;;;;;;0.30;0.30;;;;;;;;;;6290270;28;20021;-78
2023/12/02 15:52:28;;;;;;;0.30;0.30;;;;;;;;;;6272974;28;20332;-78
2023/12/02 15:55:28;;;;;;;0.30;0.30;;;;;;;;;;6292810;28;20029;-78
2023/12/02 15:58:28;;;;;;;0.30;0.30;;;;;;;;;;6292842;28;20020;-78
2023/12/02 16:01:29;;;;;;;0.30;0.30;;;;;;;;;;6292981;28;20025;-79
2023/12/02 16:04:29;;;;;;;0.20;0.20;;;;;;;;;;6292972;28;20505;-78
2023/12/02 16:07:30;;;;;;;0.20;0.20;;;;;;;;;;6292192;28;20067;-78
2023/12/02 16:10:31;;;;;;;0.20;0.20;;;;;;;;;;6284998;28;20032;-78
2023/12/02 16:13:36;;;;;;;0.20;0.20;;;;;;;;;;6276562;28;20391;-78
2023/12/02 16:16:37;;;;;;;0.20;0.20;;;;;;;;;;6293094;28;20048;-78
2023/12/02 16:19:37;;;;;;;0.30;0.30;;;;;;;;;;6299307;28;20474;-78
2023/12/02 16:22:38;;;;;;;0.30;0.30;;;;;;;;;;6292591;28;20032;-78
2023/12/02 16:25:38;;;;;;;0.30;0.30;;;;;;;;;;6283562;28;20560;-78
2023/12/02 16:28:41;;;;;;;0.30;0.30;;;;;;;;;;6292057;28;20035;-78
2023/12/02 16:31:42;;;;;;;0.30;0.30;;;;;;;;;;6290999;28;20374;-78
2023/12/02 16:34:44;;;;;;;0.20;0.20;;;;;;;;;;6270175;28;20099;-78
2023/12/02 16:37:44;;;;;;;0.20;0.20;;;;;;;;;;6295772;28;20513;-78
2023/12/02 16:40:49;;;;;;;0.30;0.30;;;;;;;;;;6290039;28;20023;-78
2023/12/02 16:43:49;;;;;;;0.30;0.30;;;;;;;;;;6277042;28;20426;-79
2023/12/02 16:46:50;;;;;;;0.30;0.30;;;;;;;;;;6272122;28;20121;-79
2023/12/02 16:49:50;;;;;;;0.30;0.30;;;;;;;;;;6281154;28;20522;-79
2023/12/02 16:52:52;;;;;;;0.20;0.20;;;;;;;;;;6296021;28;20027;-79
2023/12/02 16:55:53;;;;;;;0.20;0.20;;;;;;;;;;6291816;28;20067;-79
2023/12/02 16:58:53;;;;;;;0.20;0.20;;;;;;;;;;6269758;28;20021;-79
2023/12/02 17:01:54;;;;;;;0.20;0.20;;;;;;;;;;6290715;28;20507;-79
2023/12/02 17:04:54;;;;;;;0.30;0.30;;;;;;;;;;6289737;28;20052;-79
2023/12/02 17:07:57;;;;;;;0.20;0.20;;;;;;;;;;6291939;28;20021;-79
2023/12/02 17:10:59;;;;;;;0.30;0.30;;;;;;;;;;6249429;28;20028;-79
2023/12/02 17:14:05;;;;;;;0.20;0.20;;;;;;;;;;6288018;28;20024;-79
2023/12/02 17:17:07;;;;;;;0.30;0.30;;;;;;;;;;6291824;28;20009;-79
2023/12/02 17:20:07;;;;;;;;;;;;;;;;;;6291822;28;20099;-79
2023/12/02 17:23:07;;;;;;;0.20;0.20;;;;;;;;;;6274352;28;19926;-79
2023/12/02 17:26:09;;;;;;;0.30;0.30;;;;;;;;;;6277857;28;20017;-79
2023/12/02 17:29:13;;;;;;;0.20;0.20;;;;;;;;;;6273053;28;20483;-79
2023/12/02 17:32:14;;;;;;;0.20;0.20;;;;;;;;;;6291340;28;20467;-77
2023/12/02 17:35:14;;;;;;;0.30;0.30;;;;;;;;;;6291277;28;20019;-77
2023/12/02 17:38:14;;;;;;;0.30;0.30;;;;;;;;;;6261602;28;20021;-77
2023/12/02 17:41:14;;;;;;;0.30;0.30;;;;;;;;;;6289932;28;20490;-77
2023/12/02 17:44:18;;;;;;;0.30;0.30;;;;;;;;;;6309177;28;20008;-79
2023/12/02 17:47:18;;;;;;;0.30;0.30;;;;;;;;;;6279308;28;20021;-79
2023/12/02 17:50:19;;;;;;;0.20;0.20;;;;;;;;;;6308095;28;20070;-79
2023/12/02 17:53:19;;;;;;;0.30;0.30;;;;;;;;;;6277581;28;20454;-79
2023/12/02 17:56:21;;;;;;;0.30;0.30;;;;;;;;;;6288950;28;20025;-79
2023/12/02 17:59:22;;;;;;;0.25;0.25;;;;;;;;;;6276885;28;20016;-79
2023/12/02 18:02:23;;;;;;;0.30;0.30;;;;;;;;;;6295744;28;20017;-79
2023/12/02 18:05:23;;;;;;;0.20;0.20;;;;;;;;;;6295146;28;20086;-79
2023/12/02 18:08:24;;;;;;;0.20;0.20;;;;;;;;;;6295362;28;20032;-79
2023/12/02 18:11:25;;;;;;;0.30;0.30;;;;;;;;;;6277010;28;20134;-79
2023/12/02 18:14:26;;;;;;;0.30;0.30;;;;;;;;;;6295794;28;20048;-79